createdAt,value
2022-08-19T00:00:15.554Z,13.82
2022-08-19T00:02:17.164Z,13.57
2022-08-19T00:04:20.791Z,12.25
2022-08-19T00:06:22.378Z,13.88
2022-08-19T00:08:23.912Z,13.73
2022-08-19T00:10:25.586Z,12.35
2022-08-19T00:12:28.528Z,12.38
2022-08-19T00:14:30.390Z,12.30
2022-08-19T00:16:31.906Z,16.95
2022-08-19T00:18:33.739Z,13.23
2022-08-19T00:20:35.416Z,15.45
2022-08-19T00:22:37.138Z,15.18
2022-08-19T00:24:38.928Z,14.23
2022-08-19T00:26:41.521Z,13.48
2022-08-19T00:28:44.471Z,13.43
2022-08-19T00:30:46.106Z,16.30
2022-08-19T00:32:47.753Z,14.75
2022-08-19T00:34:49.340Z,15.82
2022-08-19T00:36:50.993Z,15.15
2022-08-19T00:38:52.813Z,15.98
2022-08-19T00:40:54.819Z,14.82
2022-08-19T00:42:56.514Z,14.40
2022-08-19T00:44:59.464Z,15.02
2022-08-19T00:47:01.249Z,15.27
2022-08-19T00:49:15.616Z,13.95
2022-08-19T00:51:17.204Z,14.10
2022-08-19T00:53:23.034Z,13.43
2022-08-19T00:55:26.844Z,13.85
2022-08-19T00:57:32.978Z,14.60
2022-08-19T01:00:00.833Z,13.85
2022-08-19T01:02:00.505Z,16.35
2022-08-19T01:04:02.170Z,15.82
2022-08-19T01:06:03.954Z,17.80
2022-08-19T01:08:07.137Z,15.68
2022-08-19T01:10:11.074Z,16.13
2022-08-19T01:12:12.873Z,15.05
2022-08-19T01:14:15.581Z,13.70
2022-08-19T01:16:20.122Z,16.27
2022-08-19T01:18:24.586Z,16.60
2022-08-19T01:20:26.685Z,17.40
2022-08-19T01:22:33.623Z,16.50
2022-08-19T01:24:35.845Z,14.73
2022-08-19T01:26:51.121Z,16.50
2022-08-19T01:28:57.422Z,15.80
2022-08-19T01:31:08.013Z,16.52
2022-08-19T01:33:10.064Z,17.30
2022-08-19T01:35:13.481Z,15.38
2022-08-19T01:37:15.839Z,15.57
2022-08-19T01:39:30.131Z,21.63
2022-08-19T01:41:31.777Z,24.08
2022-08-19T01:43:33.926Z,20.83
2022-08-19T01:45:36.410Z,17.15
2022-08-19T01:47:38.470Z,17.20
2022-08-19T01:49:40.152Z,17.08
2022-08-19T01:51:41.819Z,18.33
2022-08-19T01:53:43.449Z,16.73
2022-08-19T01:55:47.391Z,17.75
2022-08-19T01:57:53.186Z,18.42
2022-08-19T01:59:54.765Z,16.63
2022-08-19T02:01:56.320Z,16.67
2022-08-19T02:03:58.002Z,17.45
2022-08-19T02:06:01.129Z,16.98
2022-08-19T02:08:03.109Z,18.05
2022-08-19T02:10:06.634Z,17.77
2022-08-19T02:12:15.463Z,17.27
2022-08-19T02:14:17.053Z,20.63
2022-08-19T02:16:18.826Z,18.15
2022-08-19T02:18:20.381Z,17.02
2022-08-19T02:20:21.867Z,17.60
2022-08-19T02:22:23.859Z,17.33
2022-08-19T02:24:25.653Z,16.33
2022-08-19T02:26:27.315Z,16.70
2022-08-19T02:28:30.411Z,17.02
2022-08-19T02:30:32.043Z,18.75
2022-08-19T02:32:33.595Z,17.17
2022-08-19T02:34:46.344Z,18.45
2022-08-19T02:36:51.635Z,17.85
2022-08-19T02:38:54.529Z,16.23
2022-08-19T02:40:59.316Z,19.65
2022-08-19T02:43:01.528Z,17.65
2022-08-19T02:45:05.341Z,18.83
2022-08-19T02:47:07.332Z,17.70
2022-08-19T02:49:09.282Z,16.73
2022-08-19T02:51:17.311Z,18.17
2022-08-19T02:53:18.901Z,15.82
2022-08-19T02:55:20.533Z,15.65
2022-08-19T02:57:22.074Z,16.95
2022-08-19T02:59:23.628Z,14.82
2022-08-19T03:01:28.854Z,13.98
2022-08-19T03:03:30.574Z,15.30
2022-08-19T03:05:55.947Z,14.45
2022-08-19T03:07:53.710Z,15.13
2022-08-19T03:09:55.232Z,15.23
2022-08-19T03:11:57.075Z,16.83
2022-08-19T03:14:00.040Z,15.10
2022-08-19T03:16:05.569Z,15.90
2022-08-19T03:18:08.696Z,14.63
2022-08-19T03:20:11.123Z,15.35
2022-08-19T03:22:12.669Z,14.55
2022-08-19T03:24:15.430Z,16.30
2022-08-19T03:26:17.388Z,14.88
2022-08-19T03:28:18.939Z,15.80
2022-08-19T03:30:23.312Z,16.90
2022-08-19T03:32:32.440Z,17.17
2022-08-19T03:34:38.226Z,17.05
2022-08-19T03:36:40.141Z,19.30
2022-08-19T03:38:44.084Z,18.00
2022-08-19T03:40:45.611Z,19.05
2022-08-19T03:42:48.915Z,20.02
2022-08-19T03:44:51.145Z,18.40
2022-08-19T03:46:54.732Z,20.92
2022-08-19T03:48:58.756Z,20.08
2022-08-19T03:51:02.028Z,19.80
2022-08-19T03:53:03.576Z,21.67
2022-08-19T03:55:06.561Z,19.60
2022-08-19T03:57:08.118Z,27.70
2022-08-19T03:59:12.194Z,27.13
2022-08-19T04:01:17.132Z,29.13
2022-08-19T04:03:18.816Z,24.67
2022-08-19T04:05:20.360Z,22.20
2022-08-19T04:07:27.808Z,22.77
2022-08-19T04:09:29.391Z,22.25
2022-08-19T04:11:43.528Z,19.75
2022-08-19T04:13:46.034Z,20.52
2022-08-19T04:15:47.697Z,20.45
2022-08-19T04:17:49.432Z,18.30
2022-08-19T04:19:51.083Z,18.88
2022-08-19T04:21:55.224Z,19.65
2022-08-19T04:23:58.710Z,19.73
2022-08-19T04:26:01.084Z,20.05
2022-08-19T04:28:02.935Z,18.17
2022-08-19T04:30:05.476Z,19.77
2022-08-19T04:32:08.685Z,16.42
2022-08-19T04:34:12.936Z,18.45
2022-08-19T04:36:17.715Z,17.75
2022-08-19T04:38:22.941Z,18.00
2022-08-19T04:40:25.861Z,19.15
2022-08-19T04:42:30.691Z,19.40
2022-08-19T04:44:35.226Z,18.88
2022-08-19T04:46:40.066Z,19.38
2022-08-19T04:48:49.556Z,18.85
2022-08-19T04:50:51.478Z,18.08
2022-08-19T04:52:53.159Z,18.73
2022-08-19T04:54:55.117Z,19.42
2022-08-19T04:56:58.277Z,19.25
2022-08-19T04:59:00.243Z,16.50
2022-08-19T05:01:01.929Z,17.77
2022-08-19T05:03:03.603Z,18.65
2022-08-19T05:05:09.642Z,14.88
2022-08-19T05:07:11.408Z,15.13
2022-08-19T05:09:12.968Z,17.48
2022-08-19T05:11:18.555Z,16.27
2022-08-19T05:13:21.441Z,16.50
2022-08-19T05:15:23.021Z,15.52
2022-08-19T05:17:27.674Z,15.52
2022-08-19T05:19:29.946Z,14.95
2022-08-19T05:21:36.243Z,14.15
2022-08-19T05:23:38.234Z,13.07
2022-08-19T05:25:40.778Z,14.90
2022-08-19T05:27:43.287Z,13.35
2022-08-19T05:29:46.221Z,14.93
2022-08-19T05:31:49.512Z,14.20
2022-08-19T05:33:51.097Z,14.65
2022-08-19T05:35:52.701Z,14.95
2022-08-19T05:37:54.876Z,16.17
2022-08-19T05:40:00.608Z,14.38
2022-08-19T05:42:05.475Z,16.70
2022-08-19T05:44:07.010Z,14.40
2022-08-19T05:46:17.827Z,16.27
2022-08-19T05:48:20.179Z,14.95
2022-08-19T05:50:22.232Z,13.77
2022-08-19T05:52:25.698Z,15.73
2022-08-19T05:54:28.043Z,12.00
2022-08-19T05:56:29.775Z,14.88
2022-08-19T05:58:31.515Z,16.35
2022-08-19T06:00:33.074Z,17.00
2022-08-19T06:02:36.003Z,18.00
2022-08-19T06:04:37.617Z,12.90
2022-08-19T06:06:39.124Z,14.63
2022-08-19T06:08:40.811Z,15.10
2022-08-19T06:10:42.740Z,14.65
2022-08-19T06:12:44.270Z,15.55
2022-08-19T06:14:45.830Z,13.90
2022-08-19T06:16:48.089Z,15.23
2022-08-19T06:18:52.173Z,14.68
2022-08-19T06:20:55.911Z,14.38
2022-08-19T06:22:57.838Z,14.32
2022-08-19T06:24:59.412Z,14.95
2022-08-19T06:27:01.902Z,15.52
2022-08-19T06:29:04.795Z,13.90
2022-08-19T06:31:07.659Z,16.10
2022-08-19T06:33:09.243Z,14.98
2022-08-19T06:35:12.288Z,16.75
2022-08-19T06:37:14.866Z,15.25
2022-08-19T06:39:19.639Z,15.38
2022-08-19T06:41:21.244Z,16.25
2022-08-19T06:43:22.788Z,14.15
2022-08-19T06:45:35.447Z,16.02
2022-08-19T06:49:38.879Z,16.90
2022-08-19T06:51:43.661Z,16.77
2022-08-19T06:53:46.459Z,16.38
2022-08-19T06:55:49.177Z,17.33
2022-08-19T06:57:50.852Z,18.23
2022-08-19T06:59:53.021Z,16.75
2022-08-19T07:01:57.139Z,17.73
2022-08-19T07:03:59.204Z,14.02
2022-08-19T07:06:05.389Z,17.58
2022-08-19T07:08:10.270Z,14.80
2022-08-19T07:10:12.129Z,17.35
2022-08-19T07:12:15.118Z,18.08
2022-08-19T07:14:19.395Z,16.15
2022-08-19T07:16:21.672Z,18.60
2022-08-19T07:18:30.852Z,18.08
2022-08-19T07:20:32.441Z,17.55
2022-08-19T07:22:33.988Z,16.60
2022-08-19T07:24:38.368Z,17.20
2022-08-19T07:26:45.348Z,17.30
2022-08-19T07:28:52.811Z,15.07
2022-08-19T07:30:54.821Z,17.35
2022-08-19T07:32:57.485Z,17.42
2022-08-19T07:34:59.089Z,16.52
2022-08-19T07:37:00.734Z,20.13
2022-08-19T07:39:06.091Z,18.20
2022-08-19T07:41:10.893Z,18.08
2022-08-19T07:43:16.979Z,16.95
2022-08-19T07:45:19.712Z,19.83
2022-08-19T07:47:50.423Z,17.40
2022-08-19T07:49:42.808Z,18.08
2022-08-19T07:51:45.173Z,18.65
2022-08-19T07:53:47.641Z,19.45
2022-08-19T07:55:49.886Z,17.08
2022-08-19T07:57:52.737Z,15.98
2022-08-19T07:59:54.278Z,17.55
2022-08-19T08:01:57.235Z,20.40
2022-08-19T08:03:59.170Z,19.40
2022-08-19T08:06:00.733Z,16.33
2022-08-19T08:08:02.479Z,19.05
2022-08-19T08:10:05.604Z,18.20
2022-08-19T08:12:32.911Z,18.88
2022-08-19T08:14:36.796Z,18.85
2022-08-19T08:16:46.800Z,18.02
2022-08-19T08:18:50.563Z,20.80
2022-08-19T08:20:55.466Z,22.70
2022-08-19T08:22:57.048Z,37.00
2022-08-19T08:25:02.161Z,17.73
2022-08-19T08:27:04.080Z,22.10
2022-08-19T08:29:13.212Z,18.55
2022-08-19T08:31:16.114Z,17.58
2022-08-19T08:33:20.049Z,17.17
2022-08-19T08:35:35.209Z,20.55
2022-08-19T08:37:36.920Z,20.00
2022-08-19T08:39:38.658Z,21.23
2022-08-19T08:41:47.543Z,20.35
2022-08-19T08:43:51.830Z,18.17
2022-08-19T08:45:59.919Z,19.27
2022-08-19T08:48:22.357Z,19.88
2022-08-19T08:50:33.003Z,20.33
2022-08-19T08:52:40.105Z,20.85
2022-08-19T08:54:48.979Z,18.13
2022-08-19T08:56:57.569Z,19.85
2022-08-19T08:59:02.782Z,18.52
2022-08-19T09:01:04.365Z,28.83
2022-08-19T09:03:15.217Z,49.05
2022-08-19T09:05:17.075Z,31.60
2022-08-19T09:07:38.036Z,22.63
2022-08-19T09:09:43.039Z,19.27
2022-08-19T09:11:57.671Z,22.63
2022-08-19T09:14:23.529Z,21.42
2022-08-19T09:16:31.561Z,20.73
2022-08-19T09:18:43.787Z,21.23
2022-08-19T09:20:46.503Z,22.38
2022-08-19T09:22:48.517Z,22.92
2022-08-19T09:24:50.316Z,20.88
2022-08-19T09:26:52.520Z,20.15
2022-08-19T09:28:54.613Z,22.98
2022-08-19T09:30:56.177Z,32.45
2022-08-19T09:32:57.922Z,22.30
2022-08-19T09:35:01.255Z,21.45
2022-08-19T09:37:05.133Z,23.63
2022-08-19T09:39:16.192Z,27.30
2022-08-19T09:41:20.015Z,20.38
2022-08-19T09:43:33.018Z,20.65
2022-08-19T09:45:35.699Z,20.30
2022-08-19T09:47:37.788Z,22.83
2022-08-19T09:49:42.530Z,21.60
2022-08-19T09:51:50.788Z,23.30
2022-08-19T09:53:53.050Z,20.70
2022-08-19T09:55:56.461Z,21.30
2022-08-19T09:57:57.989Z,19.23
2022-08-19T09:59:59.594Z,18.75
2022-08-19T10:02:03.957Z,20.92
2022-08-19T10:04:19.763Z,20.77
2022-08-19T10:06:39.922Z,20.70
2022-08-19T10:08:50.178Z,20.52
2022-08-19T10:12:54.082Z,18.27
2022-08-19T10:14:55.621Z,19.05
2022-08-19T10:16:57.607Z,20.08
2022-08-19T10:19:00.916Z,17.63
2022-08-19T10:21:09.290Z,18.42
2022-08-19T10:23:13.244Z,17.90
2022-08-19T10:25:16.199Z,18.02
2022-08-19T10:27:17.764Z,23.45
2022-08-19T10:29:31.841Z,24.05
2022-08-19T10:32:00.761Z,19.38
2022-08-19T10:33:57.824Z,18.42
2022-08-19T10:36:01.017Z,19.48
2022-08-19T10:38:02.686Z,20.55
2022-08-19T10:40:06.591Z,18.55
2022-08-19T10:42:10.401Z,19.30
2022-08-19T10:44:13.987Z,21.67
2022-08-19T10:46:16.715Z,18.92
2022-08-19T10:48:19.577Z,19.63
2022-08-19T10:50:21.189Z,19.40
2022-08-19T10:52:32.482Z,20.75
2022-08-19T10:54:34.650Z,20.13
2022-08-19T10:56:36.806Z,20.58
2022-08-19T10:58:39.779Z,18.83
2022-08-19T11:00:42.017Z,23.08
2022-08-19T11:02:43.744Z,18.80
2022-08-19T11:04:45.491Z,18.15
2022-08-19T11:06:49.355Z,19.23
2022-08-19T11:08:50.888Z,26.90
2022-08-19T11:10:53.738Z,20.40
2022-08-19T11:12:55.347Z,16.35
2022-08-19T11:14:59.115Z,20.55
2022-08-19T11:17:00.887Z,16.10
2022-08-19T11:19:02.527Z,17.13
2022-08-19T11:21:09.445Z,18.05
2022-08-19T11:23:11.011Z,16.17
2022-08-19T11:25:12.849Z,18.73
2022-08-19T11:27:14.402Z,17.55
2022-08-19T11:29:18.888Z,17.73
2022-08-19T11:31:24.870Z,17.40
2022-08-19T11:33:31.176Z,17.77
2022-08-19T11:35:32.762Z,18.73
2022-08-19T11:37:34.374Z,16.30
2022-08-19T11:39:36.823Z,16.40
2022-08-19T11:41:38.490Z,15.68
2022-08-19T11:43:40.048Z,17.83
2022-08-19T11:45:41.597Z,17.70
2022-08-19T11:47:44.593Z,16.55
2022-08-19T11:49:46.894Z,18.20
2022-08-19T11:51:49.416Z,14.82
2022-08-19T11:53:51.823Z,21.45
2022-08-19T11:55:54.476Z,17.63
2022-08-19T11:57:56.166Z,16.73
2022-08-19T11:59:57.863Z,14.63
2022-08-19T12:01:59.465Z,16.33
2022-08-19T12:04:02.493Z,16.70
2022-08-19T12:06:06.091Z,14.52
2022-08-19T12:08:08.679Z,14.55
2022-08-19T12:10:10.875Z,13.98
2022-08-19T12:12:13.238Z,14.43
2022-08-19T12:14:14.970Z,14.68
2022-08-19T12:16:19.312Z,13.93
2022-08-19T12:18:21.074Z,13.32
2022-08-19T12:20:25.153Z,11.93
2022-08-19T12:22:26.721Z,13.57
2022-08-19T12:24:28.398Z,11.82
2022-08-19T12:26:30.841Z,13.82
2022-08-19T12:28:32.653Z,12.23
2022-08-19T12:30:34.195Z,12.82
2022-08-19T12:32:35.842Z,13.00
2022-08-19T12:34:37.402Z,12.43
2022-08-19T12:36:40.277Z,13.35
2022-08-19T12:38:42.528Z,14.90
2022-08-19T12:40:48.727Z,13.57
2022-08-19T12:42:50.301Z,13.20
2022-08-19T12:44:51.840Z,12.65
2022-08-19T12:46:53.856Z,12.00
2022-08-19T12:48:56.184Z,12.18
2022-08-19T12:50:57.790Z,13.05
2022-08-19T12:53:00.744Z,12.60
2022-08-19T12:55:02.532Z,11.02
2022-08-19T12:57:07.204Z,12.38
2022-08-19T12:59:08.791Z,12.35
2022-08-19T13:01:15.734Z,10.68
2022-08-19T13:03:19.133Z,11.65
2022-08-19T13:05:23.856Z,11.48
2022-08-19T13:07:25.590Z,11.90
2022-08-19T13:09:28.476Z,11.02
2022-08-19T13:11:30.171Z,10.63
2022-08-19T13:13:31.726Z,10.57
2022-08-19T13:15:35.292Z,10.68
2022-08-19T13:17:37.421Z,13.23
2022-08-19T13:19:38.987Z,11.60
2022-08-19T13:21:40.511Z,12.57
2022-08-19T13:23:44.185Z,10.15
2022-08-19T13:25:56.741Z,11.82
2022-08-19T13:27:58.387Z,10.52
2022-08-19T13:30:00.330Z,11.95
2022-08-19T13:32:01.909Z,11.73
2022-08-19T13:34:05.438Z,10.75
2022-08-19T13:36:07.418Z,11.95
2022-08-19T13:38:11.869Z,15.65
2022-08-19T13:40:15.734Z,13.32
2022-08-19T13:42:18.689Z,11.70
2022-08-19T13:44:20.889Z,13.35
2022-08-19T13:46:22.487Z,12.75
2022-08-19T13:48:25.020Z,14.27
2022-08-19T13:50:28.690Z,13.20
2022-08-19T13:52:31.114Z,12.88
2022-08-19T13:54:32.737Z,11.52
2022-08-19T13:56:34.309Z,12.88
2022-08-19T13:58:38.624Z,12.10
2022-08-19T14:00:43.711Z,13.57
2022-08-19T14:02:46.896Z,13.88
2022-08-19T14:04:48.514Z,15.02
2022-08-19T14:06:50.101Z,12.45
2022-08-19T14:08:51.898Z,15.23
2022-08-19T14:10:53.430Z,13.30
2022-08-19T14:12:55.932Z,11.50
2022-08-19T14:14:58.936Z,12.18
2022-08-19T14:17:00.457Z,13.27
2022-08-19T14:19:01.985Z,12.52
2022-08-19T14:21:03.992Z,12.30
2022-08-19T14:23:05.552Z,11.90
2022-08-19T14:25:09.513Z,12.23
2022-08-19T14:27:11.120Z,12.18
2022-08-19T14:29:12.654Z,13.15
2022-08-19T14:31:17.183Z,11.90
2022-08-19T14:33:18.731Z,12.80
2022-08-19T14:35:21.321Z,11.80
2022-08-19T14:37:22.843Z,12.88
2022-08-19T14:39:26.596Z,13.48
2022-08-19T14:41:28.585Z,17.17
2022-08-19T14:43:30.090Z,13.05
2022-08-19T14:45:34.769Z,11.75
2022-08-19T14:47:39.963Z,13.57
2022-08-19T14:49:44.849Z,13.18
2022-08-19T14:51:49.943Z,12.45
2022-08-19T14:53:51.901Z,11.18
2022-08-19T14:55:53.476Z,10.80
2022-08-19T14:57:55.219Z,12.75
2022-08-19T14:59:59.912Z,11.73
2022-08-19T15:02:20.206Z,12.80
2022-08-19T15:04:24.400Z,11.50
2022-08-19T15:06:26.298Z,12.05
2022-08-19T15:08:29.503Z,12.48
2022-08-19T15:10:31.357Z,12.30
2022-08-19T15:12:33.112Z,12.32
2022-08-19T15:14:37.834Z,11.40
2022-08-19T15:16:39.430Z,11.70
2022-08-19T15:18:41.518Z,11.63
2022-08-19T15:20:44.714Z,14.07
2022-08-19T15:22:48.660Z,15.65
2022-08-19T15:24:50.179Z,14.15
2022-08-19T15:26:52.622Z,19.25
2022-08-19T15:28:54.685Z,29.63
2022-08-19T15:30:56.268Z,18.33
2022-08-19T15:32:58.796Z,21.30
2022-08-19T15:35:00.377Z,23.77
2022-08-19T15:37:03.456Z,17.83
2022-08-19T15:39:06.319Z,19.35
2022-08-19T15:41:17.118Z,16.77
2022-08-19T15:43:19.983Z,18.20
2022-08-19T15:45:22.540Z,17.25
2022-08-19T15:47:24.094Z,17.63
2022-08-19T15:49:25.695Z,16.25
2022-08-19T15:51:29.634Z,17.17
2022-08-19T15:53:32.838Z,14.68
2022-08-19T15:55:43.682Z,16.33
2022-08-19T15:57:45.227Z,20.52
2022-08-19T15:59:47.763Z,24.42
2022-08-19T16:01:49.487Z,16.05
2022-08-19T16:03:52.780Z,14.82
2022-08-19T16:05:54.310Z,14.15
2022-08-19T16:07:56.299Z,15.32
2022-08-19T16:09:59.243Z,14.88
2022-08-19T16:12:21.216Z,15.60
2022-08-19T16:14:22.837Z,13.00
2022-08-19T16:16:31.097Z,20.45
2022-08-19T16:18:35.552Z,19.27
2022-08-19T16:20:37.087Z,13.95
2022-08-19T16:22:39.249Z,16.30
2022-08-19T16:24:40.964Z,12.90
2022-08-19T16:26:44.997Z,13.43
2022-08-19T16:28:47.464Z,12.27
2022-08-19T16:30:50.998Z,12.52
2022-08-19T16:32:52.737Z,17.80
2022-08-19T16:34:54.275Z,13.85
2022-08-19T16:36:55.863Z,12.75
2022-08-19T16:38:57.456Z,13.27
2022-08-19T16:40:59.429Z,11.88
2022-08-19T16:43:02.692Z,12.00
2022-08-19T16:45:05.215Z,13.02
2022-08-19T16:47:06.950Z,13.02
2022-08-19T16:49:09.258Z,10.27
2022-08-19T16:51:12.124Z,10.00
2022-08-19T16:53:13.851Z,9.27
2022-08-19T16:55:15.773Z,10.82
2022-08-19T16:57:17.341Z,10.75
2022-08-19T16:59:21.585Z,10.15
2022-08-19T17:01:23.381Z,17.35
2022-08-19T17:03:35.659Z,10.63
2022-08-19T17:05:42.489Z,9.73
2022-08-19T17:07:44.048Z,13.75
2022-08-19T17:09:45.583Z,12.30
2022-08-19T17:11:48.133Z,10.13
2022-08-19T17:13:50.496Z,10.32
2022-08-19T17:15:53.491Z,10.43
2022-08-19T17:17:59.562Z,13.23
2022-08-19T17:20:02.532Z,9.07
2022-08-19T17:22:04.213Z,11.52
2022-08-19T17:24:06.776Z,10.38
2022-08-19T17:26:08.353Z,10.32
2022-08-19T17:28:20.780Z,8.60
2022-08-19T17:30:23.500Z,10.40
2022-08-19T17:32:26.545Z,9.98
2022-08-19T17:34:28.164Z,9.52
2022-08-19T17:36:31.918Z,10.10
2022-08-19T17:38:33.908Z,14.15
2022-08-19T17:40:35.693Z,8.63
2022-08-19T17:42:38.254Z,8.65
2022-08-19T17:44:39.792Z,8.35
2022-08-19T17:46:41.410Z,10.18
2022-08-19T17:48:47.364Z,8.50
2022-08-19T17:50:51.217Z,9.35
2022-08-19T17:52:53.180Z,8.85
2022-08-19T17:54:54.787Z,8.90
2022-08-19T17:56:56.383Z,9.90
2022-08-19T17:59:00.520Z,7.97
2022-08-19T18:01:03.095Z,9.68
2022-08-19T18:03:06.302Z,10.23
2022-08-19T18:05:09.979Z,10.18
2022-08-19T18:07:11.789Z,8.45
2022-08-19T18:09:13.688Z,9.88
2022-08-19T18:11:16.537Z,21.27
2022-08-19T18:13:18.164Z,26.10
2022-08-19T18:15:21.053Z,10.43
2022-08-19T18:17:22.605Z,10.13
2022-08-19T18:19:25.356Z,13.65
2022-08-19T18:23:45.533Z,10.82
2022-08-19T18:25:47.518Z,10.65
2022-08-19T18:27:49.144Z,9.85
2022-08-19T18:29:50.895Z,10.98
2022-08-19T18:31:52.447Z,10.40
2022-08-19T18:33:54.278Z,12.20
2022-08-19T18:35:55.867Z,11.63
2022-08-19T18:38:01.188Z,12.55
2022-08-19T18:40:03.830Z,14.13
2022-08-19T18:42:05.858Z,12.68
2022-08-19T18:44:07.518Z,12.02
2022-08-19T18:46:09.225Z,14.43
2022-08-19T18:48:24.249Z,17.85
2022-08-19T18:50:29.552Z,12.13
2022-08-19T18:52:31.152Z,15.68
2022-08-19T18:54:34.534Z,16.55
2022-08-19T18:56:36.198Z,17.45
2022-08-19T18:58:38.602Z,17.27
2022-08-19T19:00:40.244Z,20.05
2022-08-19T19:02:41.993Z,18.30
2022-08-19T19:04:44.118Z,18.40
2022-08-19T19:06:46.215Z,18.35
2022-08-19T19:08:48.583Z,22.23
2022-08-19T19:10:51.506Z,20.23
2022-08-19T19:12:53.040Z,20.17
2022-08-19T19:14:54.645Z,20.98
2022-08-19T19:16:56.478Z,22.65
2022-08-19T19:19:00.583Z,23.15
2022-08-19T19:21:02.201Z,21.75
2022-08-19T19:23:04.270Z,21.80
2022-08-19T19:25:06.237Z,22.92
2022-08-19T19:27:09.637Z,21.88
2022-08-19T19:29:11.826Z,66.35
2022-08-19T19:31:16.022Z,26.60
2022-08-19T19:33:17.624Z,22.65
2022-08-19T19:35:19.174Z,23.55
2022-08-19T19:37:20.966Z,19.95
2022-08-19T19:39:45.447Z,23.60
2022-08-19T19:41:44.404Z,27.73
2022-08-19T19:43:47.407Z,23.23
2022-08-19T19:45:58.495Z,25.85
2022-08-19T19:48:00.276Z,26.42
2022-08-19T19:50:14.361Z,23.65
2022-08-19T19:52:17.074Z,25.02
2022-08-19T19:54:23.343Z,22.05
2022-08-19T19:56:25.432Z,19.92
2022-08-19T19:58:28.940Z,24.08
2022-08-19T20:00:32.377Z,25.13
2022-08-19T20:02:34.011Z,24.50
2022-08-19T20:04:35.591Z,23.40
2022-08-19T20:06:37.229Z,24.67
2022-08-19T20:08:39.333Z,26.02
2022-08-19T20:10:42.742Z,21.65
2022-08-19T20:12:44.312Z,22.77
2022-08-19T20:14:45.879Z,24.45
2022-08-19T20:16:50.599Z,25.45
2022-08-19T20:18:52.203Z,29.23
2022-08-19T20:20:57.423Z,27.05
2022-08-19T20:22:59.015Z,22.05
2022-08-19T20:25:00.701Z,22.27
2022-08-19T20:27:04.263Z,21.92
2022-08-19T20:29:13.319Z,22.17
2022-08-19T20:31:25.390Z,18.75
2022-08-19T20:33:32.708Z,20.33
2022-08-19T20:35:36.683Z,20.92
2022-08-19T20:37:38.274Z,19.42
2022-08-19T20:39:39.835Z,21.10
2022-08-19T20:41:41.434Z,20.35
2022-08-19T20:43:44.380Z,19.92
2022-08-19T20:45:48.647Z,18.83
2022-08-19T20:47:50.210Z,19.90
2022-08-19T20:49:53.132Z,19.63
2022-08-19T20:51:56.501Z,20.05
2022-08-19T20:53:58.712Z,18.73
2022-08-19T20:56:00.544Z,19.70
2022-08-19T20:58:02.203Z,20.55
2022-08-19T21:00:06.615Z,19.65
2022-08-19T21:02:08.180Z,19.80
2022-08-19T21:04:09.717Z,19.65
2022-08-19T21:06:14.320Z,20.42
2022-08-19T21:08:17.038Z,19.00
2022-08-19T21:10:18.684Z,19.50
2022-08-19T21:12:20.220Z,18.60
2022-08-19T21:14:21.788Z,23.00
2022-08-19T21:16:23.338Z,20.10
2022-08-19T21:18:25.143Z,20.73
2022-08-19T21:20:26.892Z,19.58
2022-08-19T21:22:29.788Z,20.30
2022-08-19T21:24:31.892Z,18.27
2022-08-19T21:26:33.471Z,20.20
2022-08-19T21:28:36.438Z,18.42
2022-08-19T21:30:40.170Z,18.70
2022-08-19T21:32:41.725Z,19.38
2022-08-19T21:34:46.272Z,17.67
2022-08-19T21:36:48.218Z,20.65
2022-08-19T21:38:51.084Z,21.60
2022-08-19T21:40:52.670Z,18.67
2022-08-19T21:42:54.624Z,20.38
2022-08-19T21:44:56.156Z,17.80
2022-08-19T21:46:57.677Z,18.40
2022-08-19T21:48:59.216Z,18.67
2022-08-19T21:51:00.947Z,21.33
2022-08-19T21:53:02.554Z,17.83
2022-08-19T21:55:07.384Z,17.35
2022-08-19T21:57:10.378Z,18.08
2022-08-19T21:59:12.601Z,18.63
2022-08-19T22:01:14.239Z,18.08
2022-08-19T22:03:17.200Z,18.45
2022-08-19T22:05:19.554Z,19.33
2022-08-19T22:07:22.249Z,18.00
2022-08-19T22:09:23.787Z,18.38
2022-08-19T22:11:27.635Z,25.80
2022-08-19T22:13:35.918Z,17.95
2022-08-19T22:15:40.822Z,19.67
2022-08-19T22:17:43.036Z,18.48
2022-08-19T22:19:44.596Z,19.13
2022-08-19T22:21:46.522Z,16.45
2022-08-19T22:23:48.299Z,23.23
2022-08-19T22:25:49.828Z,18.20
2022-08-19T22:27:53.256Z,16.33
2022-08-19T22:29:58.427Z,16.08
2022-08-19T22:32:00.697Z,23.13
2022-08-19T22:34:22.199Z,15.63
2022-08-19T22:36:23.802Z,16.45
2022-08-19T22:38:26.494Z,16.50
2022-08-19T22:40:29.708Z,17.23
2022-08-19T22:42:31.922Z,16.63
2022-08-19T22:44:36.114Z,16.50
2022-08-19T22:46:37.785Z,16.77
2022-08-19T22:48:39.344Z,18.75
2022-08-19T22:50:42.946Z,16.52
2022-08-19T22:52:52.129Z,16.05
2022-08-19T22:54:56.132Z,13.63
2022-08-19T22:56:57.637Z,14.70
2022-08-19T22:58:59.269Z,15.13
2022-08-19T23:01:03.067Z,16.55
2022-08-19T23:03:04.682Z,17.58
2022-08-19T23:05:08.472Z,15.85
2022-08-19T23:07:09.985Z,17.17
2022-08-19T23:09:16.978Z,15.65
2022-08-19T23:11:18.756Z,17.40
2022-08-19T23:13:20.296Z,15.93
2022-08-19T23:15:25.169Z,16.65
2022-08-19T23:17:28.134Z,18.02
2022-08-19T23:19:29.673Z,17.27
2022-08-19T23:21:31.229Z,18.17
2022-08-19T23:23:32.911Z,16.38
2022-08-19T23:25:36.336Z,18.20
2022-08-19T23:27:37.938Z,20.70
2022-08-19T23:29:39.537Z,21.70
2022-08-19T23:31:41.060Z,17.73
2022-08-19T23:33:51.597Z,18.23
2022-08-19T23:35:55.907Z,19.85
2022-08-19T23:37:57.542Z,17.95
2022-08-19T23:39:59.143Z,19.45
2022-08-19T23:42:00.800Z,18.58
2022-08-19T23:44:02.613Z,21.27
2022-08-19T23:46:10.457Z,20.80
2022-08-19T23:48:12.442Z,20.63
2022-08-19T23:50:15.638Z,21.00
2022-08-19T23:52:17.206Z,19.15
2022-08-19T23:54:18.817Z,18.67
2022-08-19T23:56:20.340Z,20.45
2022-08-19T23:58:22.622Z,16.98
